Time;durP1;ratioP1;P1;durP2;ratioP2;P2;SDS_P1;SDS_P2;PMS_P1;PMS_P2;Temp;Humidity;BMP_temperature;BMP_pressure;BME280_temperature;BME280_humidity;BME280_pressure;Samples;Min_cycle;Max_cycle;Signal;HPM_P1;HPM_P2
2022/01/31 00:01:49;;;;;;;19.67;3.93;;;5.20;99.90;;;;;;5053393;28;20234;-74
2022/01/31 00:04:14;;;;;;;16.53;3.63;;;5.20;99.90;;;;;;5071161;28;20266;-74
2022/01/31 00:06:42;;;;;;;16.03;3.70;;;5.20;99.90;;;;;;5071653;28;20199;-74
2022/01/31 00:09:14;;;;;;;17.63;3.73;;;5.20;99.90;;;;;;5070996;28;20289;-75
2022/01/31 00:11:42;;;;;;;18.50;4.40;;;5.20;99.90;;;;;;5053101;28;20210;-74
2022/01/31 00:14:16;;;;;;;15.67;3.40;;;5.20;99.90;;;;;;5070957;28;20234;-75
2022/01/31 00:16:41;;;;;;;17.07;3.60;;;5.10;99.90;;;;;;5092469;22;20676;-76
2022/01/31 00:19:07;;;;;;;21.17;4.33;;;5.20;99.90;;;;;;5063660;28;20187;-76
2022/01/31 00:21:33;;;;;;;17.77;3.80;;;5.20;99.90;;;;;;5071665;28;20175;-75
2022/01/31 00:23:59;;;;;;;18.27;3.77;;;5.10;99.90;;;;;;5084946;28;20255;-76
2022/01/31 00:26:24;;;;;;;17.33;4.33;;;5.00;99.90;;;;;;5091013;28;20532;-76
2022/01/31 00:28:49;;;;;;;12.73;3.50;;;5.10;99.90;;;;;;5090552;28;20233;-76
2022/01/31 00:31:15;;;;;;;27.53;4.83;;;5.10;99.90;;;;;;5091291;28;20229;-77
2022/01/31 00:33:41;;;;;;;13.37;3.63;;;5.10;99.90;;;;;;5091357;28;20178;-76
2022/01/31 00:36:06;;;;;;;18.27;5.07;;;5.10;99.90;;;;;;5073862;28;20975;-76
2022/01/31 00:38:32;;;;;;;18.50;4.40;;;5.00;99.90;;;;;;5071215;28;20202;-77
2022/01/31 00:40:58;;;;;;;18.03;4.47;;;5.00;99.90;;;;;;5071841;28;20247;-76
2022/01/31 00:43:23;;;;;;;21.67;4.33;;;5.00;99.90;;;;;;5071073;28;20227;-76
2022/01/31 00:46:08;;;;;;;19.40;4.73;;;5.00;99.90;;;;;;5072502;28;20219;-76
2022/01/31 00:48:40;;;;;;;24.10;5.57;;;4.90;99.90;;;;;;5049033;28;20221;-76
2022/01/31 00:51:06;;;;;;;24.33;4.53;;;5.00;99.90;;;;;;5072018;28;20249;-76
2022/01/31 00:53:31;;;;;;;17.30;5.40;;;5.00;99.90;;;;;;5053518;28;20206;-75
2022/01/31 00:55:57;;;;;;;17.90;4.90;;;5.00;99.90;;;;;;5053426;28;20240;-76
2022/01/31 00:58:22;;;;;;;20.23;4.87;;;5.00;99.90;;;;;;5052676;28;20251;-75
2022/01/31 01:00:47;;;;;;;20.97;4.60;;;5.00;99.90;;;;;;5074227;28;20174;-76
2022/01/31 01:03:13;;;;;;;20.13;4.87;;;4.90;99.90;;;;;;5075739;28;20363;-76
2022/01/31 01:05:39;;;;;;;33.10;5.57;;;4.90;99.90;;;;;;5071467;28;20226;-76
2022/01/31 01:08:05;;;;;;;27.87;4.47;;;4.90;99.90;;;;;;5070439;28;20222;-76
2022/01/31 01:10:30;;;;;;;21.33;5.63;;;4.80;99.90;;;;;;5052985;28;20214;-76
2022/01/31 01:12:56;;;;;;;20.77;4.97;;;4.80;99.90;;;;;;5076018;28;20650;-76
2022/01/31 01:15:21;;;;;;;22.80;4.73;;;4.70;99.90;;;;;;5090500;28;20278;-75
2022/01/31 01:17:47;;;;;;;24.53;4.23;;;4.70;99.90;;;;;;5058861;28;20203;-76
2022/01/31 01:20:15;;;;;;;21.53;4.30;;;4.70;99.90;;;;;;5070602;28;20211;-76
2022/01/31 01:22:41;;;;;;;25.03;4.90;;;4.70;99.90;;;;;;5070515;28;20714;-76
2022/01/31 01:25:08;;;;;;;22.77;5.07;;;4.60;99.90;;;;;;5052643;28;20206;-76
2022/01/31 01:27:33;;;;;;;27.70;5.10;;;4.70;99.90;;;;;;5070662;28;20171;-76
2022/01/31 01:29:59;;;;;;;27.57;4.67;;;4.70;99.90;;;;;;5052368;28;20198;-76
2022/01/31 01:32:28;;;;;;;25.60;5.00;;;4.70;99.90;;;;;;5087613;28;20648;-77
2022/01/31 01:34:58;;;;;;;19.70;4.93;;;4.80;99.90;;;;;;5076143;28;20339;-76
2022/01/31 01:37:24;;;;;;;19.70;4.50;;;4.70;99.90;;;;;;5093846;28;20198;-76
2022/01/31 01:39:49;;;;;;;19.50;4.90;;;4.70;99.90;;;;;;5074764;28;20266;-76
2022/01/31 01:42:15;;;;;;;22.73;5.10;;;4.80;99.90;;;;;;5074253;28;20626;-76
2022/01/31 01:44:50;;;;;;;28.43;5.57;;;4.70;99.90;;;;;;5056347;28;20210;-77
2022/01/31 01:47:18;;;;;;;27.67;5.03;;;4.70;99.90;;;;;;5053208;28;20272;-77
2022/01/31 01:49:44;;;;;;;19.67;4.77;;;4.80;99.90;;;;;;5073627;28;20594;-77
2022/01/31 01:52:10;;;;;;;21.47;4.50;;;4.70;99.90;;;;;;5056331;28;20273;-77
2022/01/31 01:54:36;;;;;;;19.57;4.67;;;4.70;99.90;;;;;;5056286;28;20179;-77
2022/01/31 01:57:03;;;;;;;26.60;5.10;;;4.80;99.90;;;;;;5073750;28;20406;-76
2022/01/31 01:59:29;;;;;;;26.47;5.47;;;4.80;99.90;;;;;;5073663;28;20217;-77
2022/01/31 02:01:55;;;;;;;26.23;4.93;;;4.70;99.90;;;;;;5073789;28;20225;-77
2022/01/31 02:04:20;;;;;;;26.73;5.23;;;4.70;99.90;;;;;;5082109;28;20210;-77
2022/01/31 02:06:46;;;;;;;25.87;4.33;;;4.70;99.90;;;;;;5094350;28;20194;-77
2022/01/31 02:09:11;;;;;;;17.03;5.30;;;4.70;99.90;;;;;;5093831;28;20309;-77
2022/01/31 02:11:37;;;;;;;28.17;5.40;;;4.70;99.90;;;;;;5093667;28;20293;-77
2022/01/31 02:14:03;;;;;;;22.70;5.00;;;4.70;99.90;;;;;;5075938;28;20686;-77
2022/01/31 02:16:28;;;;;;;23.37;4.47;;;4.70;99.90;;;;;;5075716;28;20226;-77
2022/01/31 02:18:55;;;;;;;16.30;4.30;;;4.70;99.90;;;;;;5051601;28;20201;-77
2022/01/31 02:21:20;;;;;;;15.13;4.43;;;4.70;99.90;;;;;;5073581;28;20225;-77
2022/01/31 02:23:47;;;;;;;28.17;4.67;;;4.70;99.90;;;;;;5073347;28;20282;-76
2022/01/31 02:26:13;;;;;;;24.23;4.27;;;4.70;99.90;;;;;;5055673;28;20727;-77
2022/01/31 02:28:39;;;;;;;19.87;4.10;;;4.70;99.90;;;;;;5054751;28;20234;-75
2022/01/31 02:31:06;;;;;;;22.47;4.87;;;4.70;99.90;;;;;;5055545;28;20627;-77
2022/01/31 02:33:32;;;;;;;26.30;5.43;;;4.70;99.90;;;;;;5073586;28;20647;-77
2022/01/31 02:36:01;;;;;;;23.33;4.93;;;4.80;99.90;;;;;;5055953;28;20218;-77
2022/01/31 02:38:27;;;;;;;19.90;4.27;;;4.70;99.90;;;;;;5072593;28;20308;-77
2022/01/31 02:40:53;;;;;;;28.30;5.27;;;4.70;99.90;;;;;;5073313;28;20203;-77
2022/01/31 02:43:27;;;;;;;17.53;4.67;;;4.70;99.90;;;;;;5073055;28;20264;-77
2022/01/31 02:45:53;;;;;;;25.03;5.07;;;4.70;99.90;;;;;;5055310;28;20678;-76
2022/01/31 02:48:21;;;;;;;23.80;5.07;;;4.70;99.90;;;;;;5054745;28;20217;-77
2022/01/31 02:50:47;;;;;;;22.93;4.70;;;4.70;99.90;;;;;;5055366;28;20280;-77
2022/01/31 02:53:22;;;;;;;18.10;5.17;;;4.70;99.90;;;;;;5054493;28;20230;-77
2022/01/31 02:55:49;;;;;;;22.70;4.57;;;4.60;99.90;;;;;;5064957;28;20207;-77
2022/01/31 02:58:15;;;;;;;27.77;5.37;;;4.60;99.90;;;;;;5070652;28;20587;-76
2022/01/31 03:00:41;;;;;;;27.90;6.30;;;4.60;99.90;;;;;;5093625;28;20592;-77
2022/01/31 03:03:07;;;;;;;21.67;4.60;;;4.60;99.90;;;;;;5092562;28;20304;-77
2022/01/31 03:05:33;;;;;;;24.27;5.07;;;4.60;99.90;;;;;;5075114;28;20559;-77
2022/01/31 03:07:59;;;;;;;25.33;4.73;;;4.60;99.90;;;;;;5074499;28;20221;-77
2022/01/31 03:10:25;;;;;;;19.33;4.10;;;4.60;99.90;;;;;;5093239;28;20265;-76
2022/01/31 03:12:50;;;;;;;31.67;6.90;;;4.70;99.90;;;;;;5080602;28;20177;-77
2022/01/31 03:15:16;;;;;;;22.80;4.30;;;4.80;99.90;;;;;;5073177;28;20222;-77
2022/01/31 03:17:46;;;;;;;22.87;5.00;;;4.70;99.90;;;;;;5053576;28;20207;-77
2022/01/31 03:20:12;;;;;;;19.73;4.17;;;4.70;99.90;;;;;;5074691;28;20209;-77
2022/01/31 03:22:38;;;;;;;24.07;5.47;;;4.70;99.90;;;;;;5092205;28;20578;-77
2022/01/31 03:25:04;;;;;;;21.87;4.07;;;4.70;99.90;;;;;;5092508;28;20201;-78
2022/01/31 03:27:29;;;;;;;23.40;4.47;;;4.70;99.90;;;;;;5087666;28;20169;-77
2022/01/31 03:29:55;;;;;;;28.50;4.57;;;4.70;99.90;;;;;;5062308;28;20206;-77
2022/01/31 03:32:20;;;;;;;18.10;4.17;;;4.70;99.90;;;;;;5061886;28;20217;-76
2022/01/31 03:34:46;;;;;;;31.57;5.13;;;4.70;99.90;;;;;;5083595;28;20717;-76
2022/01/31 03:37:11;;;;;;;30.77;4.80;;;4.70;99.90;;;;;;5065268;28;20186;-77
2022/01/31 03:39:37;;;;;;;26.07;5.00;;;4.70;99.90;;;;;;5075202;28;20186;-77
2022/01/31 03:42:03;;;;;;;27.10;5.17;;;4.60;99.90;;;;;;5083616;28;20206;-78
2022/01/31 03:44:29;;;;;;;21.33;4.73;;;4.60;99.90;;;;;;5082069;28;20769;-78
2022/01/31 03:46:55;;;;;;;23.97;5.97;;;4.60;99.90;;;;;;5061597;28;20211;-77
2022/01/31 03:49:21;;;;;;;22.90;5.40;;;4.70;99.90;;;;;;5079514;28;20301;-75
2022/01/31 03:51:46;;;;;;;24.03;4.83;;;4.70;99.90;;;;;;5083732;28;20726;-77
2022/01/31 03:54:12;;;;;;;26.53;5.40;;;4.70;99.90;;;;;;5083616;28;20612;-77
2022/01/31 03:56:38;;;;;;;32.33;5.10;;;4.60;99.90;;;;;;5079769;28;20242;-77
2022/01/31 03:59:03;;;;;;;30.43;4.97;;;4.60;99.90;;;;;;5062266;28;20297;-78
2022/01/31 04:01:29;;;;;;;26.90;4.40;;;4.60;99.90;;;;;;5083072;28;20756;-78
2022/01/31 04:03:54;;;;;;;25.93;5.07;;;4.50;99.90;;;;;;5083728;28;20185;-78
2022/01/31 04:06:20;;;;;;;33.33;5.23;;;4.50;99.90;;;;;;5083317;28;20325;-78
2022/01/31 04:08:45;;;;;;;33.97;5.70;;;4.50;99.90;;;;;;5060786;28;20616;-77
2022/01/31 04:11:11;;;;;;;24.57;5.40;;;4.50;99.90;;;;;;5061750;28;20297;-77
2022/01/31 04:13:37;;;;;;;26.03;4.77;;;4.50;99.90;;;;;;5063097;28;20221;-78
2022/01/31 04:16:03;;;;;;;23.07;5.30;;;4.50;99.90;;;;;;5083133;28;20209;-77
2022/01/31 04:18:28;;;;;;;21.33;4.43;;;4.50;99.90;;;;;;5090353;28;20593;-77
2022/01/31 04:20:54;;;;;;;28.30;5.77;;;4.40;99.90;;;;;;5061689;28;20290;-77
2022/01/31 04:23:22;;;;;;;24.73;5.07;;;4.40;99.90;;;;;;5079517;28;20256;-77
2022/01/31 04:28:30;;;;;;;21.03;4.47;;;4.40;99.90;;;;;;5082254;28;20209;-77
2022/01/31 04:30:59;;;;;;;36.43;4.87;;;4.40;99.90;;;;;;5073147;28;20630;-77
2022/01/31 04:33:26;;;;;;;27.30;6.03;;;4.30;99.90;;;;;;5061896;28;20211;-78
2022/01/31 04:35:53;;;;;;;27.33;5.67;;;4.40;99.90;;;;;;5065104;28;20286;-77
2022/01/31 04:38:19;;;;;;;29.20;5.03;;;4.30;99.90;;;;;;5064282;28;20213;-77
2022/01/31 04:40:45;;;;;;;22.87;4.87;;;4.30;99.90;;;;;;5056501;28;20213;-78
2022/01/31 04:43:10;;;;;;;19.50;4.53;;;4.40;99.90;;;;;;5083293;28;20175;-77
2022/01/31 04:45:36;;;;;;;34.50;5.60;;;4.30;99.90;;;;;;5081364;28;20198;-77
2022/01/31 04:48:02;;;;;;;26.87;5.90;;;4.30;99.90;;;;;;5078929;28;20211;-77
2022/01/31 04:50:27;;;;;;;26.97;5.00;;;4.30;99.90;;;;;;5062117;28;20685;-77
2022/01/31 04:52:52;;;;;;;28.30;4.97;;;4.30;99.90;;;;;;5064366;28;20251;-78
2022/01/31 04:55:18;;;;;;;23.17;4.77;;;4.30;99.90;;;;;;5064586;28;20201;-77
2022/01/31 04:57:44;;;;;;;32.07;5.77;;;4.30;99.90;;;;;;5079404;28;20188;-77
2022/01/31 05:00:10;;;;;;;21.60;5.13;;;4.30;99.90;;;;;;5065813;28;20210;-77
2022/01/31 05:02:36;;;;;;;28.30;6.13;;;4.30;99.90;;;;;;5081270;28;20316;-77
2022/01/31 05:05:02;;;;;;;27.50;5.27;;;4.30;99.90;;;;;;5082377;28;20301;-77
2022/01/31 05:07:28;;;;;;;24.17;4.80;;;4.40;99.90;;;;;;5083433;28;20288;-77
2022/01/31 05:09:53;;;;;;;21.93;4.83;;;4.30;99.90;;;;;;5069079;28;20635;-77
2022/01/31 05:12:19;;;;;;;20.47;4.53;;;4.30;99.90;;;;;;5087091;28;20218;-76
2022/01/31 05:14:44;;;;;;;21.83;5.67;;;4.30;99.90;;;;;;5086238;28;20616;-77
2022/01/31 05:17:10;;;;;;;24.37;4.77;;;4.30;99.90;;;;;;5079530;28;20293;-77
2022/01/31 05:19:35;;;;;;;26.53;5.17;;;4.30;99.90;;;;;;5084542;28;20284;-77
2022/01/31 05:22:01;;;;;;;32.43;6.07;;;4.30;99.90;;;;;;5086334;28;20186;-77
2022/01/31 05:24:27;;;;;;;29.73;4.67;;;4.40;99.90;;;;;;5086760;28;20179;-77
2022/01/31 05:26:53;;;;;;;25.43;5.03;;;4.30;99.90;;;;;;5086492;28;20603;-77
2022/01/31 05:29:20;;;;;;;23.33;5.13;;;4.30;99.90;;;;;;5073536;28;20229;-77
2022/01/31 05:31:46;;;;;;;22.13;4.80;;;4.40;99.90;;;;;;5052371;28;20236;-77
2022/01/31 05:34:12;;;;;;;29.03;5.63;;;4.40;99.90;;;;;;5068916;28;20189;-76
2022/01/31 05:36:39;;;;;;;30.70;5.23;;;4.30;99.90;;;;;;5085154;28;20540;-76
2022/01/31 05:39:04;;;;;;;24.07;5.20;;;4.30;99.90;;;;;;5071654;28;20619;-78
2022/01/31 05:41:30;;;;;;;20.20;4.90;;;4.40;99.90;;;;;;5088676;28;20206;-77
2022/01/31 05:43:55;;;;;;;26.00;5.13;;;4.20;99.90;;;;;;5067659;28;20229;-77
2022/01/31 05:46:21;;;;;;;20.53;4.97;;;4.20;99.90;;;;;;5080230;28;20228;-74
2022/01/31 05:48:46;;;;;;;26.00;6.00;;;4.20;99.90;;;;;;5074331;28;20278;-77
2022/01/31 05:51:20;;;;;;;29.93;5.10;;;4.20;99.90;;;;;;5056652;28;20206;-76
2022/01/31 05:53:47;;;;;;;29.10;5.70;;;4.20;99.90;;;;;;5056482;28;20204;-77
2022/01/31 05:56:13;;;;;;;25.77;5.27;;;4.20;99.90;;;;;;5056639;28;20222;-75
2022/01/31 05:58:40;;;;;;;23.97;4.90;;;4.20;99.90;;;;;;5073665;28;20248;-77
2022/01/31 06:01:06;;;;;;;30.03;5.67;;;4.20;99.90;;;;;;5074751;28;20221;-77
2022/01/31 06:03:31;;;;;;;24.80;5.10;;;4.20;99.90;;;;;;5074594;28;20197;-76
2022/01/31 06:05:57;;;;;;;31.57;6.30;;;4.10;99.90;;;;;;5074493;28;20293;-76
2022/01/31 06:08:22;;;;;;;27.33;5.40;;;4.10;99.90;;;;;;5073739;28;20216;-77
2022/01/31 06:10:49;;;;;;;28.10;5.53;;;4.10;99.90;;;;;;5074079;28;20285;-77
2022/01/31 06:13:23;;;;;;;19.17;4.77;;;4.10;99.90;;;;;;5055874;28;20705;-77
2022/01/31 06:15:49;;;;;;;25.27;4.47;;;4.00;99.90;;;;;;5079765;23;20228;-72
2022/01/31 06:18:15;;;;;;;24.07;4.80;;;4.00;99.90;;;;;;5053276;28;20697;-72
2022/01/31 06:20:41;;;;;;;22.27;4.90;;;4.00;99.90;;;;;;5064484;28;20221;-72
2022/01/31 06:23:07;;;;;;;25.37;4.83;;;4.00;99.90;;;;;;5073011;28;20306;-73
2022/01/31 06:25:34;;;;;;;24.47;5.43;;;4.00;99.90;;;;;;5073152;28;20882;-73
2022/01/31 06:28:00;;;;;;;22.37;5.57;;;4.00;99.90;;;;;;5072303;28;20678;-72
2022/01/31 06:30:26;;;;;;;19.20;5.00;;;4.00;99.90;;;;;;5055772;28;20189;-73
2022/01/31 06:32:53;;;;;;;26.87;5.67;;;3.90;99.90;;;;;;5072898;28;20653;-72
2022/01/31 06:35:19;;;;;;;25.03;5.90;;;3.90;99.90;;;;;;5073119;28;20225;-72
2022/01/31 06:37:44;;;;;;;21.87;4.90;;;4.00;99.90;;;;;;5072612;28;20198;-72
2022/01/31 06:40:10;;;;;;;39.03;6.10;;;4.00;99.90;;;;;;5057800;28;20190;-72
2022/01/31 06:42:36;;;;;;;31.13;5.20;;;4.00;99.90;;;;;;5035195;28;20651;-72
2022/01/31 06:45:03;;;;;;;33.97;6.73;;;3.90;99.90;;;;;;5035044;28;20259;-72
2022/01/31 06:47:28;;;;;;;25.30;5.27;;;4.00;99.90;;;;;;5051255;28;20585;-76
2022/01/31 06:49:54;;;;;;;20.97;5.20;;;4.00;99.90;;;;;;5052488;28;20213;-75
2022/01/31 06:52:19;;;;;;;27.20;5.13;;;4.00;99.90;;;;;;5035861;28;20215;-74
2022/01/31 06:54:49;;;;;;;27.53;6.13;;;4.00;99.90;;;;;;5052994;28;20207;-75
2022/01/31 06:57:17;;;;;;;25.70;5.27;;;3.90;99.90;;;;;;5034550;28;20271;-76
2022/01/31 06:59:42;;;;;;;25.30;5.37;;;3.90;99.90;;;;;;5052119;28;20238;-74
2022/01/31 07:02:08;;;;;;;30.63;6.37;;;3.90;99.90;;;;;;5052347;28;20234;-75
2022/01/31 07:04:33;;;;;;;21.60;4.80;;;3.90;99.90;;;;;;5052295;28;20221;-74
2022/01/31 07:06:59;;;;;;;24.93;5.27;;;3.90;99.90;;;;;;5052666;28;20293;-74
2022/01/31 07:09:24;;;;;;;28.33;5.50;;;3.90;99.90;;;;;;5051561;28;20223;-75
2022/01/31 07:11:52;;;;;;;24.10;5.70;;;3.90;99.90;;;;;;5052134;28;20207;-75
2022/01/31 07:14:30;;;;;;;32.47;5.77;;;4.00;99.90;;;;;;5052237;28;20213;-74
2022/01/31 07:16:56;;;;;;;37.37;6.70;;;4.00;99.90;;;;;;5033017;28;20222;-74
2022/01/31 07:19:25;;;;;;;35.40;5.67;;;3.90;99.90;;;;;;5051745;28;20571;-73
2022/01/31 07:21:51;;;;;;;30.83;5.37;;;3.90;99.90;;;;;;5052824;28;20514;-74
2022/01/31 07:26:43;;;;;;;25.37;5.27;;;4.00;99.90;;;;;;5071633;28;20214;-75
2022/01/31 07:29:09;;;;;;;27.97;5.30;;;3.90;99.90;;;;;;5053409;28;20231;-74
2022/01/31 07:31:35;;;;;;;22.50;4.97;;;4.00;99.90;;;;;;5053016;28;20218;-74
2022/01/31 07:34:01;;;;;;;25.60;4.97;;;3.90;99.90;;;;;;5071619;28;20223;-74
2022/01/31 07:36:26;;;;;;;25.03;5.77;;;3.90;99.90;;;;;;5054516;28;20209;-74
2022/01/31 07:38:52;;;;;;;26.63;6.40;;;3.90;99.90;;;;;;5071333;28;20625;-75
2022/01/31 07:41:17;;;;;;;24.97;5.47;;;3.90;99.90;;;;;;5054608;28;20236;-74
2022/01/31 07:43:46;;;;;;;32.70;5.77;;;4.00;99.90;;;;;;5071859;28;20201;-74
2022/01/31 07:46:13;;;;;;;27.87;5.93;;;3.90;99.90;;;;;;5052977;28;20200;-74
2022/01/31 07:48:39;;;;;;;25.73;5.27;;;3.90;99.90;;;;;;5061474;28;20288;-74
2022/01/31 07:51:05;;;;;;;27.47;6.73;;;4.00;99.90;;;;;;5071778;28;20770;-75
2022/01/31 07:53:31;;;;;;;26.60;5.60;;;4.00;99.90;;;;;;5052979;28;20210;-73
2022/01/31 07:56:00;;;;;;;25.27;5.50;;;4.00;99.90;;;;;;5071705;28;20206;-75
2022/01/31 07:58:25;;;;;;;26.53;5.87;;;4.00;99.90;;;;;;5070963;28;20241;-75
2022/01/31 08:00:51;;;;;;;20.97;5.03;;;3.90;99.90;;;;;;5071933;28;20212;-74
2022/01/31 08:03:16;;;;;;;48.43;7.70;;;3.90;99.90;;;;;;5053212;28;20196;-74
2022/01/31 08:05:42;;;;;;;25.87;5.70;;;3.80;99.90;;;;;;5071086;28;20271;-75
2022/01/31 08:08:08;;;;;;;31.07;5.53;;;3.80;99.90;;;;;;5052789;28;20240;-75
2022/01/31 08:10:36;;;;;;;31.23;10.10;;;3.90;99.90;;;;;;5071264;28;20224;-74
2022/01/31 08:13:04;;;;;;;27.67;6.13;;;3.90;99.90;;;;;;5053139;28;20172;-74
2022/01/31 08:15:30;;;;;;;28.77;5.37;;;4.00;99.90;;;;;;5053655;28;20708;-74
2022/01/31 08:17:56;;;;;;;30.30;7.43;;;4.00;99.90;;;;;;5054215;28;20257;-75
2022/01/31 08:20:21;;;;;;;28.43;5.57;;;4.00;99.90;;;;;;5050911;28;20215;-73
2022/01/31 08:22:47;;;;;;;30.07;5.87;;;4.00;99.90;;;;;;5050812;28;20279;-74
2022/01/31 08:25:16;;;;;;;27.10;5.53;;;4.00;99.90;;;;;;5051084;28;20198;-75
2022/01/31 08:27:48;;;;;;;25.27;4.90;;;4.00;99.90;;;;;;5033201;28;20281;-74
2022/01/31 08:30:20;;;;;;;33.13;6.23;;;4.20;99.90;;;;;;5032943;28;20244;-73
2022/01/31 08:32:57;;;;;;;27.30;5.77;;;4.20;99.90;;;;;;5033002;28;20199;-74
2022/01/31 08:38:07;;;;;;;29.07;6.90;;;4.30;99.90;;;;;;5050516;28;20273;-73
2022/01/31 08:40:33;;;;;;;28.17;6.00;;;4.30;99.90;;;;;;5050971;28;20210;-74
2022/01/31 08:42:58;;;;;;;38.03;6.87;;;4.30;99.90;;;;;;5050996;28;20206;-74
2022/01/31 08:45:24;;;;;;;30.30;5.70;;;4.30;99.90;;;;;;5050294;28;20206;-75
2022/01/31 08:47:49;;;;;;;31.47;6.17;;;4.30;99.90;;;;;;5049236;28;20218;-74
2022/01/31 08:50:15;;;;;;;23.03;5.60;;;4.20;99.90;;;;;;5050643;28;20677;-74
2022/01/31 08:52:41;;;;;;;28.87;4.97;;;4.20;99.90;;;;;;5035428;28;20228;-75
2022/01/31 08:55:09;;;;;;;30.73;6.73;;;4.40;99.90;;;;;;5070653;28;20183;-72
2022/01/31 08:57:35;;;;;;;30.93;5.73;;;4.30;99.90;;;;;;5070994;28;20201;-74
2022/01/31 09:00:01;;;;;;;23.57;5.43;;;4.20;99.90;;;;;;5052278;28;20205;-74
2022/01/31 09:02:37;;;;;;;23.07;5.60;;;4.20;99.90;;;;;;5053117;28;20704;-76
2022/01/31 09:05:04;;;;;;;20.07;4.87;;;4.20;99.90;;;;;;5070677;28;20713;-74
2022/01/31 09:07:30;;;;;;;29.03;6.23;;;4.40;99.90;;;;;;5070286;28;20210;-75
2022/01/31 09:09:58;;;;;;;26.00;6.07;;;4.50;99.90;;;;;;5070486;28;20187;-74
2022/01/31 09:12:28;;;;;;;27.07;6.20;;;4.50;99.90;;;;;;5044271;28;21050;-74
2022/01/31 09:14:54;;;;;;;33.17;5.70;;;4.50;99.90;;;;;;5071102;28;20331;-74
2022/01/31 09:17:20;;;;;;;26.03;7.00;;;4.50;99.90;;;;;;5069322;28;20254;-74
2022/01/31 09:19:45;;;;;;;21.33;5.47;;;4.40;99.90;;;;;;5047652;28;20203;-74
2022/01/31 09:22:11;;;;;;;25.37;5.30;;;4.40;99.90;;;;;;5056630;28;20606;-74
2022/01/31 09:24:39;;;;;;;40.10;7.27;;;4.40;99.90;;;;;;5050696;28;20183;-75
2022/01/31 09:27:09;;;;;;;23.23;5.53;;;4.50;99.90;;;;;;5056238;28;20215;-74
2022/01/31 09:29:34;;;;;;;29.70;6.70;;;4.40;99.90;;;;;;5051427;28;20274;-74
2022/01/31 09:32:02;;;;;;;23.23;6.30;;;4.50;99.90;;;;;;5070384;28;20210;-74
2022/01/31 09:34:30;;;;;;;20.60;5.60;;;4.60;99.90;;;;;;5051901;28;20667;-74
2022/01/31 09:36:56;;;;;;;35.43;6.67;;;4.50;99.90;;;;;;5070606;28;20209;-75
2022/01/31 09:39:21;;;;;;;27.20;5.80;;;4.60;99.90;;;;;;5051659;28;20213;-74
2022/01/31 09:41:53;;;;;;;21.97;5.37;;;4.60;99.90;;;;;;5070821;28;20336;-74
2022/01/31 09:47:21;;;;;;;24.53;5.67;;;4.40;99.90;;;;;;5061236;28;20661;-73
2022/01/31 09:49:47;;;;;;;22.73;5.47;;;4.50;99.90;;;;;;5069163;28;20313;-73
2022/01/31 09:52:13;;;;;;;28.53;5.47;;;4.60;99.90;;;;;;5070097;28;20190;-74
2022/01/31 09:54:38;;;;;;;20.43;5.33;;;4.60;99.90;;;;;;5053762;28;20184;-74
2022/01/31 09:57:04;;;;;;;29.23;5.93;;;4.70;99.90;;;;;;5073716;28;20214;-74
2022/01/31 09:59:30;;;;;;;20.17;5.90;;;4.70;99.90;;;;;;5073019;28;20215;-74
2022/01/31 10:01:57;;;;;;;30.43;5.20;;;4.80;99.90;;;;;;5073660;28;20298;-74
2022/01/31 10:04:25;;;;;;;27.47;8.13;;;5.00;99.90;;;;;;5073143;28;20663;-74
2022/01/31 10:06:55;;;;;;;27.27;5.33;;;5.10;99.90;;;;;;5056084;28;20737;-74
2022/01/31 10:09:24;;;;;;;21.00;5.70;;;5.00;99.90;;;;;;5064593;28;20229;-75
2022/01/31 10:12:06;;;;;;;24.37;6.77;;;4.90;99.90;;;;;;5053673;28;20769;-73
2022/01/31 10:17:37;;;;;;;24.30;5.33;;;4.90;99.90;;;;;;5052024;28;20230;-74
2022/01/31 10:20:17;;;;;;;22.60;5.73;;;4.80;99.90;;;;;;5053013;28;20307;-74
2022/01/31 10:22:43;;;;;;;29.67;6.80;;;4.90;99.90;;;;;;5053307;28;20698;-73
2022/01/31 10:25:12;;;;;;;24.13;6.07;;;4.80;99.90;;;;;;5035293;28;20187;-74
2022/01/31 10:27:38;;;;;;;22.33;5.57;;;4.90;99.90;;;;;;5035340;28;20200;-72
2022/01/31 10:30:09;;;;;;;18.13;5.77;;;4.80;99.90;;;;;;5035005;28;20356;-74
2022/01/31 10:32:37;;;;;;;22.20;5.37;;;5.00;99.90;;;;;;5035046;28;20215;-74
2022/01/31 10:35:09;;;;;;;23.63;5.70;;;5.00;99.90;;;;;;5052941;28;20219;-74
2022/01/31 10:37:36;;;;;;;23.00;5.73;;;4.80;99.90;;;;;;5052772;28;20220;-74
2022/01/31 10:54:27;;;;;;;20.27;5.20;;;5.00;99.90;;;;;;5059954;28;20257;-74
2022/01/31 10:56:59;;;;;;;24.77;5.53;;;5.20;99.90;;;;;;5054766;28;20290;-74
2022/01/31 10:59:27;;;;;;;18.23;4.37;;;5.20;99.90;;;;;;5063196;28;20588;-74
2022/01/31 11:01:55;;;;;;;23.90;5.47;;;5.00;99.90;;;;;;5052610;28;20583;-74
2022/01/31 11:04:21;;;;;;;26.83;6.13;;;5.20;99.90;;;;;;5052452;28;20216;-72
2022/01/31 11:06:49;;;;;;;25.43;5.90;;;5.20;99.90;;;;;;5052934;28;20192;-74
2022/01/31 11:09:17;;;;;;;25.50;5.07;;;5.50;99.90;;;;;;5051769;28;20719;-74
2022/01/31 11:11:45;;;;;;;24.67;5.70;;;5.40;99.90;;;;;;5034414;28;20249;-74
2022/01/31 11:14:12;;;;;;;20.87;6.00;;;5.30;99.90;;;;;;5052248;28;20593;-75
2022/01/31 11:16:43;;;;;;;19.93;5.77;;;5.40;99.90;;;;;;5051190;28;20282;-75
2022/01/31 11:19:10;;;;;;;18.13;4.30;;;5.60;99.90;;;;;;5033834;28;20244;-75
2022/01/31 11:21:39;;;;;;;23.83;5.57;;;5.60;99.90;;;;;;5052856;28;20176;-74
2022/01/31 11:24:19;;;;;;;25.97;6.07;;;5.50;99.90;;;;;;5051871;28;20223;-74
2022/01/31 11:26:54;;;;;;;19.50;5.33;;;5.50;99.90;;;;;;5051980;28;20644;-74
2022/01/31 11:29:19;;;;;;;18.60;5.50;;;5.60;99.90;;;;;;5033470;28;20227;-74
2022/01/31 11:31:46;;;;;;;24.67;4.83;;;5.70;99.90;;;;;;5052027;28;20207;-74
2022/01/31 11:34:12;;;;;;;21.63;6.20;;;5.80;99.90;;;;;;5033603;28;20175;-75
2022/01/31 11:36:39;;;;;;;27.70;5.43;;;5.70;99.90;;;;;;5034510;28;20690;-74
2022/01/31 11:39:13;;;;;;;21.30;5.33;;;5.90;99.90;;;;;;5033656;28;20586;-73
2022/01/31 11:41:44;;;;;;;21.80;5.50;;;6.00;99.90;;;;;;5033980;28;20204;-75
2022/01/31 11:44:26;;;;;;;29.93;6.63;;;5.90;99.90;;;;;;5051727;28;20204;-74
2022/01/31 11:46:55;;;;;;;21.70;4.87;;;6.10;99.90;;;;;;5032769;28;20252;-75
2022/01/31 11:49:21;;;;;;;19.90;5.63;;;6.20;99.90;;;;;;5050812;28;20219;-75
2022/01/31 11:52:04;;;;;;;23.40;5.83;;;6.40;99.90;;;;;;5052214;28;20176;-74
2022/01/31 11:54:30;;;;;;;20.30;4.80;;;6.20;99.90;;;;;;5043245;28;20214;-74
2022/01/31 11:56:56;;;;;;;23.57;5.60;;;6.40;99.90;;;;;;5053908;28;20780;-74
2022/01/31 11:59:24;;;;;;;19.10;5.10;;;6.50;99.90;;;;;;5071071;28;20289;-74
2022/01/31 12:01:54;;;;;;;21.97;5.73;;;6.50;99.90;;;;;;5071550;28;20221;-74
2022/01/31 12:04:23;;;;;;;19.77;5.27;;;6.70;99.90;;;;;;5071012;28;20186;-74
2022/01/31 12:06:50;;;;;;;16.57;5.43;;;6.90;99.90;;;;;;5072079;28;20211;-74
2022/01/31 12:09:18;;;;;;;37.70;7.20;;;7.10;99.90;;;;;;5070843;28;20714;-74
2022/01/31 12:12:05;;;;;;;27.13;5.77;;;7.20;99.90;;;;;;5067960;28;20211;-73
2022/01/31 12:15:05;;;;;;;18.70;4.90;;;7.10;99.90;;;;;;5050776;28;20290;-73
2022/01/31 12:23:35;;;;;;;17.10;5.20;;;6.30;99.90;;;;;;5051150;28;20253;-73
2022/01/31 12:26:00;;;;;;;26.50;6.20;;;6.20;99.90;;;;;;5051122;28;20214;-73
2022/01/31 12:28:43;;;;;;;24.07;5.67;;;6.30;99.90;;;;;;5032271;28;20594;-74
2022/01/31 12:31:34;;;;;;;16.67;5.07;;;6.20;99.90;;;;;;5051073;28;20176;-73
2022/01/31 12:34:01;;;;;;;21.97;5.40;;;6.20;99.90;;;;;;5029907;28;20179;-73
2022/01/31 12:36:36;;;;;;;26.77;6.37;;;6.30;99.90;;;;;;5033505;28;20286;-73
2022/01/31 12:39:03;;;;;;;21.90;5.77;;;6.40;99.90;;;;;;5032502;28;20199;-74
2022/01/31 12:41:31;;;;;;;25.87;5.70;;;6.40;99.90;;;;;;5032769;28;20214;-73
2022/01/31 12:44:38;;;;;;;22.87;6.30;;;6.40;99.90;;;;;;5063753;28;20552;-73
2022/01/31 12:47:16;;;;;;;18.00;5.20;;;6.60;99.90;;;;;;5067838;28;20222;-73
2022/01/31 12:50:05;;;;;;;29.23;10.87;;;6.80;99.90;;;;;;5070528;28;20221;-73
2022/01/31 12:52:35;;;;;;;23.40;7.63;;;6.50;99.90;;;;;;5060590;28;20219;-73
2022/01/31 12:55:11;;;;;;;21.73;6.27;;;6.30;99.90;;;;;;5046788;28;20183;-73
2022/01/31 12:57:50;;;;;;;32.10;6.87;;;6.30;99.90;;;;;;5042785;28;20675;-74
2022/01/31 13:00:30;;;;;;;22.70;5.97;;;6.20;99.90;;;;;;5050877;28;20230;-74
2022/01/31 13:02:55;;;;;;;24.17;6.47;;;6.20;99.90;;;;;;5063735;28;20206;-73
2022/01/31 13:05:50;;;;;;;25.23;6.67;;;6.20;99.90;;;;;;5070671;28;20264;-73
2022/01/31 13:08:23;;;;;;;31.30;7.07;;;6.00;99.90;;;;;;5033732;28;20215;-74
2022/01/31 13:10:51;;;;;;;29.33;6.33;;;6.00;99.90;;;;;;5067139;28;20206;-74
2022/01/31 13:13:34;;;;;;;25.47;7.27;;;5.90;99.90;;;;;;5061811;28;20180;-74
2022/01/31 13:16:10;;;;;;;21.13;5.93;;;6.10;99.90;;;;;;5034162;28;20215;-74
2022/01/31 13:18:37;;;;;;;22.53;5.90;;;6.10;99.90;;;;;;5049405;28;20294;-74
2022/01/31 13:21:04;;;;;;;19.70;5.60;;;5.90;99.90;;;;;;5056390;28;20206;-75
2022/01/31 13:23:31;;;;;;;27.33;6.67;;;6.10;99.90;;;;;;5070337;28;20764;-75
2022/01/31 13:25:59;;;;;;;26.63;6.30;;;6.00;99.90;;;;;;5065968;28;20701;-75